Terminal Aerodrome Forecast
Issued by NWS

Home | Current Version | Previous Version | Text Only | Print | Product List | Glossary On
Versions: 1 2 3 4 5 6 7 8 9 10 11 12 13 14 15 16 17 18 19 20 21 22 23 24 25 26 27 28 29 30 31 32 33 34 35 36 37 38 39 40 41 42 43 44 45 46 47 48 49 50
000
FTUS41 KOKX 200524
TAFHPN
TAF
KHPN 200524Z 2006/2106 18014G21KT 3SM -SHRA BR BKN003 OVC008
      WS015/20050KT
      TEMPO 2006/2010 1SM +SHRA BKN015 OVC030
     FM201500 17012G21KT 4SM SHRA BR BKN015 WS020/19050KT
     FM201700 17014G22KT P6SM VCSH BKN015 BKN025 WS020/19050KT
     FM201900 15015G25KT P6SM SCT030 BKN150
     FM210200 16007KT P6SM FEW060 BKN200
     AMD NOT SKED=

USA.gov is the U.S. government's official web portal to all federal, state and local government web resources and services.